sensor_id;sensor_type;location;lat;lon;timestamp;P1;durP1;ratioP1;P2;durP2;ratioP2
85457;SDS011;75848;42.706;23.292;2024-03-23T00:53:32;19.40;;;8.65;;
85457;SDS011;75848;42.706;23.292;2024-03-23T00:56:17;16.95;;;8.23;;
85457;SDS011;75848;42.706;23.292;2024-03-23T00:58:45;14.80;;;7.80;;
85457;SDS011;75848;42.706;23.292;2024-03-23T01:01:25;22.23;;;9.00;;
85457;SDS011;75848;42.706;23.292;2024-03-23T01:03:53;15.27;;;8.45;;
85457;SDS011;75848;42.706;23.292;2024-03-23T01:06:21;16.90;;;7.13;;
85457;SDS011;75848;42.706;23.292;2024-03-23T01:08:48;11.85;;;6.85;;
85457;SDS011;75848;42.706;23.292;2024-03-23T01:11:15;13.07;;;6.97;;
85457;SDS011;75848;42.706;23.292;2024-03-23T01:13:42;10.93;;;5.50;;
85457;SDS011;75848;42.706;23.292;2024-03-23T01:16:08;11.07;;;6.95;;
85457;SDS011;75848;42.706;23.292;2024-03-23T01:18:44;14.60;;;8.45;;
85457;SDS011;75848;42.706;23.292;2024-03-23T01:21:21;20.58;;;7.40;;
85457;SDS011;75848;42.706;23.292;2024-03-23T01:23:55;12.98;;;6.78;;
85457;SDS011;75848;42.706;23.292;2024-03-23T01:26:30;15.55;;;8.10;;
85457;SDS011;75848;42.706;23.292;2024-03-23T01:29:09;18.13;;;6.90;;
85457;SDS011;75848;42.706;23.292;2024-03-23T01:32:05;11.48;;;6.68;;
85457;SDS011;75848;42.706;23.292;2024-03-23T01:34:41;14.15;;;6.25;;
85457;SDS011;75848;42.706;23.292;2024-03-23T01:37:12;11.38;;;6.88;;
85457;SDS011;75848;42.706;23.292;2024-03-23T01:39:42;14.25;;;7.72;;
85457;SDS011;75848;42.706;23.292;2024-03-23T01:42:16;15.43;;;6.90;;
85457;SDS011;75848;42.706;23.292;2024-03-23T01:44:48;15.02;;;6.95;;
85457;SDS011;75848;42.706;23.292;2024-03-23T01:47:19;11.70;;;6.18;;
85457;SDS011;75848;42.706;23.292;2024-03-23T01:50:10;14.40;;;6.68;;
85457;SDS011;75848;42.706;23.292;2024-03-23T01:52:42;14.57;;;6.95;;
85457;SDS011;75848;42.706;23.292;2024-03-23T01:55:12;17.23;;;6.90;;
85457;SDS011;75848;42.706;23.292;2024-03-23T01:57:37;11.15;;;6.75;;
85457;SDS011;75848;42.706;23.292;2024-03-23T02:00:05;11.18;;;6.10;;
85457;SDS011;75848;42.706;23.292;2024-03-23T02:02:35;12.73;;;6.28;;
85457;SDS011;75848;42.706;23.292;2024-03-23T02:05:02;20.15;;;7.30;;
85457;SDS011;75848;42.706;23.292;2024-03-23T02:07:30;12.27;;;6.45;;
85457;SDS011;75848;42.706;23.292;2024-03-23T02:13:18;12.57;;;6.68;;
85457;SDS011;75848;42.706;23.292;2024-03-23T02:18:56;13.95;;;6.63;;
85457;SDS011;75848;42.706;23.292;2024-03-23T02:21:32;17.85;;;6.03;;
85457;SDS011;75848;42.706;23.292;2024-03-23T02:23:59;11.82;;;6.25;;
85457;SDS011;75848;42.706;23.292;2024-03-23T02:26:26;12.43;;;6.18;;
85457;SDS011;75848;42.706;23.292;2024-03-23T02:28:53;12.02;;;6.57;;
85457;SDS011;75848;42.706;23.292;2024-03-23T02:31:26;14.30;;;6.05;;
85457;SDS011;75848;42.706;23.292;2024-03-23T02:33:54;12.65;;;6.07;;
85457;SDS011;75848;42.706;23.292;2024-03-23T02:36:20;13.00;;;6.95;;
85457;SDS011;75848;42.706;23.292;2024-03-23T02:38:50;17.17;;;7.47;;
85457;SDS011;75848;42.706;23.292;2024-03-23T02:41:20;9.38;;;5.50;;
85457;SDS011;75848;42.706;23.292;2024-03-23T02:43:50;11.63;;;6.32;;
85457;SDS011;75848;42.706;23.292;2024-03-23T02:46:16;11.48;;;6.35;;
85457;SDS011;75848;42.706;23.292;2024-03-23T02:48:48;14.20;;;7.30;;
85457;SDS011;75848;42.706;23.292;2024-03-23T02:51:16;12.02;;;6.63;;
85457;SDS011;75848;42.706;23.292;2024-03-23T02:53:59;12.40;;;6.07;;
85457;SDS011;75848;42.706;23.292;2024-03-23T02:57:01;9.52;;;5.35;;
85457;SDS011;75848;42.706;23.292;2024-03-23T02:59:29;11.40;;;6.18;;
85457;SDS011;75848;42.706;23.292;2024-03-23T03:02:03;12.32;;;5.60;;
85457;SDS011;75848;42.706;23.292;2024-03-23T03:04:36;14.10;;;6.53;;
85457;SDS011;75848;42.706;23.292;2024-03-23T03:07:19;14.98;;;5.97;;
85457;SDS011;75848;42.706;23.292;2024-03-23T03:09:48;12.95;;;5.30;;
85457;SDS011;75848;42.706;23.292;2024-03-23T03:12:21;12.18;;;6.50;;
85457;SDS011;75848;42.706;23.292;2024-03-23T03:14:53;9.00;;;6.10;;
85457;SDS011;75848;42.706;23.292;2024-03-23T03:17:20;11.05;;;5.53;;
85457;SDS011;75848;42.706;23.292;2024-03-23T03:19:55;12.05;;;6.03;;
85457;SDS011;75848;42.706;23.292;2024-03-23T03:25:30;10.18;;;6.03;;
85457;SDS011;75848;42.706;23.292;2024-03-23T03:27:56;12.60;;;5.68;;
85457;SDS011;75848;42.706;23.292;2024-03-23T03:33:56;17.38;;;5.82;;
85457;SDS011;75848;42.706;23.292;2024-03-23T03:39:30;12.82;;;6.45;;
85457;SDS011;75848;42.706;23.292;2024-03-23T03:41:59;11.10;;;5.55;;
85457;SDS011;75848;42.706;23.292;2024-03-23T03:44:48;13.60;;;5.97;;
85457;SDS011;75848;42.706;23.292;2024-03-23T03:47:17;11.70;;;5.50;;
85457;SDS011;75848;42.706;23.292;2024-03-23T03:50:10;9.93;;;5.53;;
85457;SDS011;75848;42.706;23.292;2024-03-23T04:03:21;12.45;;;6.30;;
85457;SDS011;75848;42.706;23.292;2024-03-23T04:05:55;11.88;;;6.60;;
85457;SDS011;75848;42.706;23.292;2024-03-23T04:11:13;12.75;;;6.30;;
85457;SDS011;75848;42.706;23.292;2024-03-23T04:13:51;17.42;;;6.93;;
85457;SDS011;75848;42.706;23.292;2024-03-23T04:16:28;13.65;;;7.28;;
85457;SDS011;75848;42.706;23.292;2024-03-23T04:19:11;12.40;;;7.20;;
85457;SDS011;75848;42.706;23.292;2024-03-23T04:24:53;9.77;;;6.13;;
85457;SDS011;75848;42.706;23.292;2024-03-23T04:27:43;14.13;;;6.22;;
85457;SDS011;75848;42.706;23.292;2024-03-23T04:33:34;13.27;;;6.63;;
85457;SDS011;75848;42.706;23.292;2024-03-23T04:36:12;14.38;;;7.10;;
85457;SDS011;75848;42.706;23.292;2024-03-23T04:38:45;10.73;;;6.35;;
85457;SDS011;75848;42.706;23.292;2024-03-23T04:41:34;13.48;;;7.45;;
85457;SDS011;75848;42.706;23.292;2024-03-23T04:44:42;15.30;;;8.15;;
85457;SDS011;75848;42.706;23.292;2024-03-23T04:50:40;18.08;;;9.50;;
85457;SDS011;75848;42.706;23.292;2024-03-23T04:53:17;23.30;;;8.48;;
85457;SDS011;75848;42.706;23.292;2024-03-23T04:55:48;18.60;;;9.27;;
85457;SDS011;75848;42.706;23.292;2024-03-23T05:04:53;27.48;;;11.77;;
85457;SDS011;75848;42.706;23.292;2024-03-23T05:07:19;20.33;;;10.30;;
85457;SDS011;75848;42.706;23.292;2024-03-23T05:15:56;21.20;;;10.32;;
85457;SDS011;75848;42.706;23.292;2024-03-23T05:18:41;14.02;;;7.47;;
85457;SDS011;75848;42.706;23.292;2024-03-23T05:21:06;12.45;;;7.22;;
85457;SDS011;75848;42.706;23.292;2024-03-23T05:23:37;16.45;;;7.10;;
85457;SDS011;75848;42.706;23.292;2024-03-23T05:26:09;20.88;;;7.30;;
85457;SDS011;75848;42.706;23.292;2024-03-23T05:28:35;19.83;;;7.30;;
85457;SDS011;75848;42.706;23.292;2024-03-23T05:33:56;12.65;;;5.25;;
85457;SDS011;75848;42.706;23.292;2024-03-23T05:36:25;12.73;;;4.97;;
85457;SDS011;75848;42.706;23.292;2024-03-23T05:38:57;10.35;;;5.43;;
85457;SDS011;75848;42.706;23.292;2024-03-23T05:41:29;9.23;;;5.07;;
85457;SDS011;75848;42.706;23.292;2024-03-23T05:43:55;8.63;;;5.18;;
85457;SDS011;75848;42.706;23.292;2024-03-23T05:46:21;9.13;;;4.57;;
85457;SDS011;75848;42.706;23.292;2024-03-23T05:48:50;8.48;;;5.05;;
85457;SDS011;75848;42.706;23.292;2024-03-23T05:51:17;10.85;;;5.25;;
85457;SDS011;75848;42.706;23.292;2024-03-23T05:53:44;9.80;;;5.03;;
85457;SDS011;75848;42.706;23.292;2024-03-23T05:59:33;13.20;;;5.43;;
85457;SDS011;75848;42.706;23.292;2024-03-23T06:01:59;7.82;;;4.50;;
85457;SDS011;75848;42.706;23.292;2024-03-23T06:04:24;9.60;;;4.65;;
85457;SDS011;75848;42.706;23.292;2024-03-23T06:06:51;13.07;;;5.78;;
85457;SDS011;75848;42.706;23.292;2024-03-23T06:09:22;10.90;;;5.28;;
85457;SDS011;75848;42.706;23.292;2024-03-23T06:11:48;9.63;;;4.80;;
85457;SDS011;75848;42.706;23.292;2024-03-23T06:14:19;10.23;;;5.30;;
85457;SDS011;75848;42.706;23.292;2024-03-23T06:16:44;12.10;;;5.40;;
85457;SDS011;75848;42.706;23.292;2024-03-23T06:19:10;8.38;;;5.20;;
85457;SDS011;75848;42.706;23.292;2024-03-23T06:21:36;13.07;;;6.05;;
85457;SDS011;75848;42.706;23.292;2024-03-23T06:24:03;14.50;;;5.93;;
85457;SDS011;75848;42.706;23.292;2024-03-23T06:26:33;12.13;;;5.88;;
85457;SDS011;75848;42.706;23.292;2024-03-23T06:28:59;14.45;;;6.05;;
85457;SDS011;75848;42.706;23.292;2024-03-23T06:31:31;11.73;;;6.72;;
85457;SDS011;75848;42.706;23.292;2024-03-23T06:34:24;12.50;;;6.15;;
85457;SDS011;75848;42.706;23.292;2024-03-23T06:36:49;18.38;;;7.47;;
85457;SDS011;75848;42.706;23.292;2024-03-23T06:39:15;13.98;;;8.07;;
85457;SDS011;75848;42.706;23.292;2024-03-23T06:41:51;16.30;;;7.10;;
85457;SDS011;75848;42.706;23.292;2024-03-23T06:44:21;13.25;;;6.53;;
85457;SDS011;75848;42.706;23.292;2024-03-23T06:47:13;14.70;;;7.20;;
85457;SDS011;75848;42.706;23.292;2024-03-23T06:52:30;21.25;;;8.20;;
85457;SDS011;75848;42.706;23.292;2024-03-23T06:54:56;15.27;;;7.40;;
85457;SDS011;75848;42.706;23.292;2024-03-23T06:57:23;15.60;;;7.50;;
85457;SDS011;75848;42.706;23.292;2024-03-23T06:59:54;14.80;;;7.30;;
85457;SDS011;75848;42.706;23.292;2024-03-23T07:02:20;19.02;;;9.90;;
85457;SDS011;75848;42.706;23.292;2024-03-23T07:04:48;13.98;;;7.45;;
85457;SDS011;75848;42.706;23.292;2024-03-23T07:07:14;14.32;;;7.50;;
85457;SDS011;75848;42.706;23.292;2024-03-23T07:09:42;11.75;;;7.40;;
85457;SDS011;75848;42.706;23.292;2024-03-23T07:12:12;15.57;;;7.32;;
85457;SDS011;75848;42.706;23.292;2024-03-23T07:14:41;14.07;;;8.07;;
85457;SDS011;75848;42.706;23.292;2024-03-23T07:17:11;18.75;;;7.97;;
85457;SDS011;75848;42.706;23.292;2024-03-23T07:19:37;13.80;;;8.23;;
85457;SDS011;75848;42.706;23.292;2024-03-23T07:22:05;14.55;;;8.98;;
85457;SDS011;75848;42.706;23.292;2024-03-23T07:24:31;14.13;;;7.15;;
85457;SDS011;75848;42.706;23.292;2024-03-23T07:27:06;13.30;;;7.20;;
85457;SDS011;75848;42.706;23.292;2024-03-23T07:29:51;11.80;;;7.18;;
85457;SDS011;75848;42.706;23.292;2024-03-23T07:32:16;14.70;;;7.65;;
85457;SDS011;75848;42.706;23.292;2024-03-23T07:34:43;12.15;;;6.43;;
85457;SDS011;75848;42.706;23.292;2024-03-23T07:37:11;14.57;;;7.60;;
85457;SDS011;75848;42.706;23.292;2024-03-23T07:39:37;15.65;;;6.72;;
85457;SDS011;75848;42.706;23.292;2024-03-23T07:42:06;12.60;;;7.07;;
85457;SDS011;75848;42.706;23.292;2024-03-23T07:44:32;11.40;;;6.65;;
85457;SDS011;75848;42.706;23.292;2024-03-23T07:47:03;13.73;;;6.47;;
85457;SDS011;75848;42.706;23.292;2024-03-23T07:49:30;12.55;;;7.45;;
85457;SDS011;75848;42.706;23.292;2024-03-23T07:52:04;15.73;;;7.30;;
85457;SDS011;75848;42.706;23.292;2024-03-23T07:54:33;16.83;;;8.15;;
85457;SDS011;75848;42.706;23.292;2024-03-23T07:57:04;14.73;;;6.95;;
85457;SDS011;75848;42.706;23.292;2024-03-23T07:59:32;12.95;;;6.55;;
85457;SDS011;75848;42.706;23.292;2024-03-23T08:02:04;11.95;;;6.82;;
85457;SDS011;75848;42.706;23.292;2024-03-23T08:04:33;12.23;;;7.50;;
85457;SDS011;75848;42.706;23.292;2024-03-23T08:06:59;13.93;;;6.95;;
85457;SDS011;75848;42.706;23.292;2024-03-23T08:09:25;15.40;;;7.70;;
85457;SDS011;75848;42.706;23.292;2024-03-23T08:11:53;19.48;;;7.60;;
85457;SDS011;75848;42.706;23.292;2024-03-23T08:14:21;17.20;;;7.13;;
85457;SDS011;75848;42.706;23.292;2024-03-23T08:16:49;18.63;;;8.43;;
85457;SDS011;75848;42.706;23.292;2024-03-23T08:19:17;22.83;;;9.65;;
85457;SDS011;75848;42.706;23.292;2024-03-23T08:21:46;21.08;;;12.35;;
85457;SDS011;75848;42.706;23.292;2024-03-23T08:24:12;12.90;;;6.90;;
85457;SDS011;75848;42.706;23.292;2024-03-23T08:26:39;14.32;;;8.23;;
85457;SDS011;75848;42.706;23.292;2024-03-23T08:29:07;14.25;;;7.65;;
85457;SDS011;75848;42.706;23.292;2024-03-23T08:31:35;14.63;;;6.75;;
85457;SDS011;75848;42.706;23.292;2024-03-23T08:34:03;13.98;;;7.75;;
85457;SDS011;75848;42.706;23.292;2024-03-23T08:36:32;13.30;;;7.53;;
85457;SDS011;75848;42.706;23.292;2024-03-23T08:39:01;15.15;;;7.82;;
85457;SDS011;75848;42.706;23.292;2024-03-23T08:41:31;14.05;;;7.82;;
85457;SDS011;75848;42.706;23.292;2024-03-23T08:44:11;16.65;;;7.70;;
85457;SDS011;75848;42.706;23.292;2024-03-23T08:46:39;14.52;;;7.45;;
85457;SDS011;75848;42.706;23.292;2024-03-23T08:49:09;13.30;;;7.65;;
85457;SDS011;75848;42.706;23.292;2024-03-23T08:51:38;13.07;;;7.20;;
85457;SDS011;75848;42.706;23.292;2024-03-23T08:54:06;13.98;;;7.88;;
85457;SDS011;75848;42.706;23.292;2024-03-23T08:56:32;14.75;;;7.32;;
85457;SDS011;75848;42.706;23.292;2024-03-23T08:59:01;15.70;;;8.77;;
85457;SDS011;75848;42.706;23.292;2024-03-23T09:01:35;14.05;;;7.95;;
85457;SDS011;75848;42.706;23.292;2024-03-23T09:04:03;14.00;;;7.70;;
85457;SDS011;75848;42.706;23.292;2024-03-23T09:09:00;12.18;;;7.22;;
85457;SDS011;75848;42.706;23.292;2024-03-23T09:11:26;16.42;;;8.30;;
85457;SDS011;75848;42.706;23.292;2024-03-23T09:13:53;15.88;;;8.25;;
85457;SDS011;75848;42.706;23.292;2024-03-23T09:16:22;12.60;;;7.50;;
85457;SDS011;75848;42.706;23.292;2024-03-23T09:18:48;17.83;;;7.93;;
85457;SDS011;75848;42.706;23.292;2024-03-23T09:21:18;14.07;;;7.47;;
85457;SDS011;75848;42.706;23.292;2024-03-23T09:23:46;14.20;;;8.88;;
85457;SDS011;75848;42.706;23.292;2024-03-23T09:26:15;12.77;;;7.47;;
85457;SDS011;75848;42.706;23.292;2024-03-23T09:28:49;12.55;;;8.13;;
85457;SDS011;75848;42.706;23.292;2024-03-23T09:31:17;17.27;;;7.88;;
85457;SDS011;75848;42.706;23.292;2024-03-23T09:33:43;12.88;;;7.70;;
85457;SDS011;75848;42.706;23.292;2024-03-23T09:36:10;13.30;;;7.95;;
85457;SDS011;75848;42.706;23.292;2024-03-23T09:38:38;10.02;;;7.43;;
85457;SDS011;75848;42.706;23.292;2024-03-23T09:41:10;17.05;;;9.55;;
85457;SDS011;75848;42.706;23.292;2024-03-23T09:43:36;14.52;;;8.05;;
85457;SDS011;75848;42.706;23.292;2024-03-23T09:46:05;15.88;;;9.07;;
85457;SDS011;75848;42.706;23.292;2024-03-23T09:48:31;17.20;;;7.93;;
85457;SDS011;75848;42.706;23.292;2024-03-23T09:50:57;15.32;;;7.53;;
85457;SDS011;75848;42.706;23.292;2024-03-23T09:53:24;14.23;;;8.18;;
85457;SDS011;75848;42.706;23.292;2024-03-23T09:55:50;15.80;;;7.65;;
85457;SDS011;75848;42.706;23.292;2024-03-23T09:58:16;16.63;;;7.13;;
85457;SDS011;75848;42.706;23.292;2024-03-23T10:00:46;13.85;;;6.90;;
85457;SDS011;75848;42.706;23.292;2024-03-23T10:03:12;17.00;;;8.60;;
85457;SDS011;75848;42.706;23.292;2024-03-23T10:05:39;15.85;;;9.25;;
85457;SDS011;75848;42.706;23.292;2024-03-23T10:11:12;21.65;;;8.73;;
85457;SDS011;75848;42.706;23.292;2024-03-23T10:13:41;12.68;;;7.13;;
85457;SDS011;75848;42.706;23.292;2024-03-23T10:16:11;12.00;;;6.82;;
85457;SDS011;75848;42.706;23.292;2024-03-23T10:18:37;20.50;;;8.30;;
85457;SDS011;75848;42.706;23.292;2024-03-23T10:21:11;12.73;;;7.68;;
85457;SDS011;75848;42.706;23.292;2024-03-23T10:23:49;13.88;;;7.55;;
85457;SDS011;75848;42.706;23.292;2024-03-23T10:31:34;9.25;;;5.35;;
85457;SDS011;75848;42.706;23.292;2024-03-23T10:34:28;10.90;;;6.35;;
85457;SDS011;75848;42.706;23.292;2024-03-23T10:36:55;12.02;;;6.35;;
85457;SDS011;75848;42.706;23.292;2024-03-23T10:42:04;14.10;;;9.23;;
85457;SDS011;75848;42.706;23.292;2024-03-23T10:44:33;19.42;;;6.95;;
85457;SDS011;75848;42.706;23.292;2024-03-23T10:47:17;14.77;;;7.32;;
85457;SDS011;75848;42.706;23.292;2024-03-23T10:49:46;11.75;;;7.07;;
85457;SDS011;75848;42.706;23.292;2024-03-23T10:52:15;10.00;;;6.03;;
85457;SDS011;75848;42.706;23.292;2024-03-23T10:54:55;12.48;;;6.18;;
85457;SDS011;75848;42.706;23.292;2024-03-23T10:57:37;9.05;;;5.97;;
85457;SDS011;75848;42.706;23.292;2024-03-23T11:00:22;11.10;;;6.32;;
85457;SDS011;75848;42.706;23.292;2024-03-23T11:02:54;9.88;;;6.03;;
85457;SDS011;75848;42.706;23.292;2024-03-23T11:07:57;12.52;;;6.90;;
85457;SDS011;75848;42.706;23.292;2024-03-23T11:10:29;13.07;;;5.68;;
85457;SDS011;75848;42.706;23.292;2024-03-23T11:12:58;9.55;;;5.60;;
85457;SDS011;75848;42.706;23.292;2024-03-23T11:15:45;13.95;;;5.20;;
85457;SDS011;75848;42.706;23.292;2024-03-23T11:18:11;8.43;;;5.53;;
85457;SDS011;75848;42.706;23.292;2024-03-23T11:20:56;10.07;;;4.55;;
85457;SDS011;75848;42.706;23.292;2024-03-23T11:23:29;11.70;;;4.85;;
85457;SDS011;75848;42.706;23.292;2024-03-23T11:25:56;12.07;;;5.00;;
85457;SDS011;75848;42.706;23.292;2024-03-23T11:28:22;11.35;;;4.35;;
85457;SDS011;75848;42.706;23.292;2024-03-23T11:30:53;12.38;;;4.30;;
85457;SDS011;75848;42.706;23.292;2024-03-23T11:33:35;13.25;;;7.50;;
85457;SDS011;75848;42.706;23.292;2024-03-23T11:36:02;15.57;;;7.30;;
85457;SDS011;75848;42.706;23.292;2024-03-23T11:38:30;7.78;;;4.68;;
85457;SDS011;75848;42.706;23.292;2024-03-23T11:41:02;5.95;;;4.03;;
85457;SDS011;75848;42.706;23.292;2024-03-23T11:43:30;10.60;;;4.43;;
85457;SDS011;75848;42.706;23.292;2024-03-23T11:46:00;10.07;;;3.95;;
85457;SDS011;75848;42.706;23.292;2024-03-23T11:48:28;5.95;;;3.90;;
85457;SDS011;75848;42.706;23.292;2024-03-23T11:50:58;8.18;;;4.20;;
85457;SDS011;75848;42.706;23.292;2024-03-23T11:53:29;4.47;;;3.40;;
85457;SDS011;75848;42.706;23.292;2024-03-23T11:55:59;7.65;;;3.85;;
85457;SDS011;75848;42.706;23.292;2024-03-23T11:58:34;8.20;;;4.00;;
85457;SDS011;75848;42.706;23.292;2024-03-23T12:01:03;23.73;;;11.73;;
85457;SDS011;75848;42.706;23.292;2024-03-23T12:03:37;13.10;;;5.88;;
85457;SDS011;75848;42.706;23.292;2024-03-23T12:06:04;8.77;;;4.55;;
85457;SDS011;75848;42.706;23.292;2024-03-23T12:08:33;10.15;;;3.67;;
85457;SDS011;75848;42.706;23.292;2024-03-23T12:11:17;8.32;;;3.70;;
85457;SDS011;75848;42.706;23.292;2024-03-23T12:13:45;5.07;;;3.60;;
85457;SDS011;75848;42.706;23.292;2024-03-23T12:16:18;7.57;;;4.55;;
85457;SDS011;75848;42.706;23.292;2024-03-23T12:18:46;7.22;;;3.67;;
85457;SDS011;75848;42.706;23.292;2024-03-23T12:21:16;7.72;;;3.67;;
85457;SDS011;75848;42.706;23.292;2024-03-23T12:23:48;8.00;;;3.88;;
85457;SDS011;75848;42.706;23.292;2024-03-23T12:26:17;5.68;;;3.53;;
85457;SDS011;75848;42.706;23.292;2024-03-23T12:28:43;8.48;;;4.00;;
85457;SDS011;75848;42.706;23.292;2024-03-23T12:31:14;9.98;;;4.03;;
85457;SDS011;75848;42.706;23.292;2024-03-23T12:33:44;8.15;;;3.65;;
85457;SDS011;75848;42.706;23.292;2024-03-23T12:36:11;4.93;;;3.15;;
85457;SDS011;75848;42.706;23.292;2024-03-23T12:38:51;2.90;;;2.20;;
85457;SDS011;75848;42.706;23.292;2024-03-23T12:41:17;2.80;;;1.77;;
85457;SDS011;75848;42.706;23.292;2024-03-23T12:43:44;1.35;;;1.17;;
85457;SDS011;75848;42.706;23.292;2024-03-23T12:46:09;1.40;;;1.20;;
85457;SDS011;75848;42.706;23.292;2024-03-23T12:48:36;3.88;;;1.80;;
85457;SDS011;75848;42.706;23.292;2024-03-23T12:51:06;1.60;;;1.17;;
85457;SDS011;75848;42.706;23.292;2024-03-23T12:53:41;1.17;;;1.10;;
85457;SDS011;75848;42.706;23.292;2024-03-23T12:56:11;1.80;;;1.35;;
85457;SDS011;75848;42.706;23.292;2024-03-23T12:58:37;2.78;;;1.10;;
85457;SDS011;75848;42.706;23.292;2024-03-23T13:01:14;2.88;;;1.92;;
85457;SDS011;75848;42.706;23.292;2024-03-23T13:03:40;2.00;;;1.30;;
85457;SDS011;75848;42.706;23.292;2024-03-23T13:06:09;1.95;;;1.30;;
85457;SDS011;75848;42.706;23.292;2024-03-23T13:08:35;2.55;;;2.15;;
85457;SDS011;75848;42.706;23.292;2024-03-23T13:11:02;2.47;;;1.30;;
85457;SDS011;75848;42.706;23.292;2024-03-23T13:13:32;3.22;;;1.38;;
85457;SDS011;75848;42.706;23.292;2024-03-23T13:16:00;3.17;;;1.60;;
85457;SDS011;75848;42.706;23.292;2024-03-23T13:18:31;2.15;;;1.27;;
85457;SDS011;75848;42.706;23.292;2024-03-23T13:20:58;2.10;;;1.60;;
85457;SDS011;75848;42.706;23.292;2024-03-23T13:23:25;3.53;;;1.40;;
85457;SDS011;75848;42.706;23.292;2024-03-23T13:25:52;1.15;;;1.00;;
85457;SDS011;75848;42.706;23.292;2024-03-23T13:28:18;3.58;;;1.20;;
85457;SDS011;75848;42.706;23.292;2024-03-23T13:30:55;3.05;;;1.42;;
85457;SDS011;75848;42.706;23.292;2024-03-23T13:33:25;4.28;;;1.30;;
85457;SDS011;75848;42.706;23.292;2024-03-23T13:36:00;1.85;;;0.95;;
85457;SDS011;75848;42.706;23.292;2024-03-23T13:38:26;2.53;;;1.60;;
85457;SDS011;75848;42.706;23.292;2024-03-23T13:41:00;1.65;;;1.17;;
85457;SDS011;75848;42.706;23.292;2024-03-23T13:43:41;2.05;;;1.08;;
85457;SDS011;75848;42.706;23.292;2024-03-23T13:46:13;2.63;;;1.30;;
85457;SDS011;75848;42.706;23.292;2024-03-23T13:48:42;3.90;;;1.90;;
85457;SDS011;75848;42.706;23.292;2024-03-23T13:51:10;3.53;;;1.80;;
85457;SDS011;75848;42.706;23.292;2024-03-23T13:53:42;1.67;;;1.13;;
85457;SDS011;75848;42.706;23.292;2024-03-23T13:56:09;1.52;;;1.17;;
85457;SDS011;75848;42.706;23.292;2024-03-23T13:58:38;1.65;;;1.42;;
85457;SDS011;75848;42.706;23.292;2024-03-23T14:01:04;2.72;;;1.48;;
85457;SDS011;75848;42.706;23.292;2024-03-23T14:03:33;7.50;;;1.48;;
85457;SDS011;75848;42.706;23.292;2024-03-23T14:06:20;3.20;;;1.27;;
85457;SDS011;75848;42.706;23.292;2024-03-23T14:08:49;1.88;;;1.38;;
85457;SDS011;75848;42.706;23.292;2024-03-23T14:11:17;2.03;;;1.65;;
85457;SDS011;75848;42.706;23.292;2024-03-23T14:13:43;3.88;;;1.63;;
85457;SDS011;75848;42.706;23.292;2024-03-23T14:16:11;2.30;;;1.98;;
85457;SDS011;75848;42.706;23.292;2024-03-23T14:18:51;4.97;;;2.63;;
85457;SDS011;75848;42.706;23.292;2024-03-23T14:21:18;3.25;;;2.28;;
85457;SDS011;75848;42.706;23.292;2024-03-23T14:23:45;2.55;;;1.42;;
85457;SDS011;75848;42.706;23.292;2024-03-23T14:26:16;3.45;;;2.30;;
85457;SDS011;75848;42.706;23.292;2024-03-23T14:28:42;2.85;;;1.65;;
85457;SDS011;75848;42.706;23.292;2024-03-23T14:31:11;3.00;;;1.73;;
85457;SDS011;75848;42.706;23.292;2024-03-23T14:33:43;1.90;;;1.50;;
85457;SDS011;75848;42.706;23.292;2024-03-23T14:36:15;2.42;;;1.60;;
85457;SDS011;75848;42.706;23.292;2024-03-23T14:38:52;4.32;;;1.73;;
85457;SDS011;75848;42.706;23.292;2024-03-23T14:41:21;2.38;;;1.98;;
85457;SDS011;75848;42.706;23.292;2024-03-23T14:43:48;4.53;;;2.00;;
85457;SDS011;75848;42.706;23.292;2024-03-23T14:46:21;2.17;;;1.48;;
85457;SDS011;75848;42.706;23.292;2024-03-23T14:49:14;1.77;;;1.65;;
85457;SDS011;75848;42.706;23.292;2024-03-23T14:51:44;3.83;;;1.75;;
85457;SDS011;75848;42.706;23.292;2024-03-23T14:54:11;2.20;;;1.50;;
85457;SDS011;75848;42.706;23.292;2024-03-23T14:56:44;6.60;;;2.20;;
85457;SDS011;75848;42.706;23.292;2024-03-23T14:59:14;2.35;;;1.80;;
85457;SDS011;75848;42.706;23.292;2024-03-23T15:01:40;2.55;;;1.90;;
85457;SDS011;75848;42.706;23.292;2024-03-23T15:04:11;2.67;;;2.00;;
85457;SDS011;75848;42.706;23.292;2024-03-23T15:06:40;4.82;;;2.20;;
85457;SDS011;75848;42.706;23.292;2024-03-23T15:09:11;2.28;;;1.80;;
85457;SDS011;75848;42.706;23.292;2024-03-23T15:11:42;3.10;;;1.70;;
85457;SDS011;75848;42.706;23.292;2024-03-23T15:14:08;2.33;;;2.00;;
85457;SDS011;75848;42.706;23.292;2024-03-23T15:16:38;2.17;;;1.70;;
85457;SDS011;75848;42.706;23.292;2024-03-23T15:19:08;2.58;;;2.00;;
85457;SDS011;75848;42.706;23.292;2024-03-23T15:21:35;2.72;;;2.10;;
85457;SDS011;75848;42.706;23.292;2024-03-23T15:24:02;3.53;;;2.40;;
85457;SDS011;75848;42.706;23.292;2024-03-23T15:26:32;3.15;;;2.00;;
85457;SDS011;75848;42.706;23.292;2024-03-23T15:29:04;2.70;;;2.38;;
85457;SDS011;75848;42.706;23.292;2024-03-23T15:31:44;3.63;;;2.60;;
85457;SDS011;75848;42.706;23.292;2024-03-23T15:34:16;4.95;;;2.53;;
85457;SDS011;75848;42.706;23.292;2024-03-23T15:36:53;3.92;;;2.58;;
85457;SDS011;75848;42.706;23.292;2024-03-23T15:39:20;4.80;;;2.72;;
85457;SDS011;75848;42.706;23.292;2024-03-23T15:41:47;2.28;;;2.00;;
85457;SDS011;75848;42.706;23.292;2024-03-23T15:44:15;4.53;;;2.17;;
85457;SDS011;75848;42.706;23.292;2024-03-23T15:46:45;4.43;;;2.47;;
85457;SDS011;75848;42.706;23.292;2024-03-23T15:49:21;3.33;;;3.03;;
85457;SDS011;75848;42.706;23.292;2024-03-23T15:51:49;4.85;;;3.05;;
85457;SDS011;75848;42.706;23.292;2024-03-23T15:54:19;2.90;;;2.30;;
85457;SDS011;75848;42.706;23.292;2024-03-23T15:56:51;3.53;;;2.72;;
85457;SDS011;75848;42.706;23.292;2024-03-23T15:59:18;5.85;;;3.08;;
85457;SDS011;75848;42.706;23.292;2024-03-23T16:01:53;2.95;;;2.15;;
85457;SDS011;75848;42.706;23.292;2024-03-23T16:04:23;5.40;;;3.00;;
85457;SDS011;75848;42.706;23.292;2024-03-23T16:06:50;6.53;;;3.63;;
85457;SDS011;75848;42.706;23.292;2024-03-23T16:09:25;3.88;;;3.15;;
85457;SDS011;75848;42.706;23.292;2024-03-23T16:11:52;4.35;;;2.92;;
85457;SDS011;75848;42.706;23.292;2024-03-23T16:14:21;5.05;;;3.28;;
85457;SDS011;75848;42.706;23.292;2024-03-23T16:16:59;3.75;;;2.72;;
85457;SDS011;75848;42.706;23.292;2024-03-23T16:19:38;6.70;;;2.60;;
85457;SDS011;75848;42.706;23.292;2024-03-23T16:22:09;4.80;;;2.53;;
85457;SDS011;75848;42.706;23.292;2024-03-23T16:24:39;4.90;;;3.00;;
85457;SDS011;75848;42.706;23.292;2024-03-23T16:29:37;2.15;;;1.85;;
85457;SDS011;75848;42.706;23.292;2024-03-23T16:32:07;7.55;;;2.67;;
85457;SDS011;75848;42.706;23.292;2024-03-23T16:34:38;5.65;;;2.10;;
85457;SDS011;75848;42.706;23.292;2024-03-23T16:37:06;3.17;;;2.40;;
85457;SDS011;75848;42.706;23.292;2024-03-23T16:39:37;5.38;;;2.92;;
85457;SDS011;75848;42.706;23.292;2024-03-23T16:42:04;4.90;;;2.60;;
85457;SDS011;75848;42.706;23.292;2024-03-23T16:44:32;5.95;;;2.90;;
85457;SDS011;75848;42.706;23.292;2024-03-23T16:47:00;4.63;;;3.13;;
85457;SDS011;75848;42.706;23.292;2024-03-23T16:49:35;5.07;;;3.40;;
85457;SDS011;75848;42.706;23.292;2024-03-23T16:52:03;4.43;;;2.42;;
85457;SDS011;75848;42.706;23.292;2024-03-23T16:54:34;4.78;;;2.65;;
85457;SDS011;75848;42.706;23.292;2024-03-23T16:57:03;3.25;;;2.10;;
85457;SDS011;75848;42.706;23.292;2024-03-23T16:59:29;6.35;;;2.75;;